createdAt,value
2023-05-04T00:00:02.638Z,74.99
2023-05-04T00:02:31.130Z,75.42
2023-05-04T00:04:57.730Z,76.92
2023-05-04T00:07:24.232Z,75.70
2023-05-04T00:09:50.773Z,75.01
2023-05-04T00:12:17.703Z,75.21
2023-05-04T00:14:44.175Z,75.47
2023-05-04T00:17:11.042Z,76.41
2023-05-04T00:19:39.322Z,76.04
2023-05-04T00:22:05.743Z,76.43
2023-05-04T00:24:32.166Z,76.81
2023-05-04T00:26:58.603Z,75.66
2023-05-04T00:29:25.027Z,75.22
2023-05-04T00:31:51.523Z,76.04
2023-05-04T00:34:18.456Z,75.94
2023-05-04T00:36:44.900Z,76.57
2023-05-04T00:39:13.054Z,76.29
2023-05-04T00:41:39.485Z,76.45
2023-05-04T00:44:06.409Z,76.45
2023-05-04T00:46:33.864Z,76.95
2023-05-04T00:49:00.357Z,76.48
2023-05-04T00:51:27.219Z,75.92
2023-05-04T00:53:55.355Z,76.47
2023-05-04T00:56:25.796Z,76.33
2023-05-04T00:58:54.328Z,76.42
2023-05-04T01:01:22.335Z,76.81
2023-05-04T01:03:50.845Z,76.45
2023-05-04T01:06:44.086Z,76.58
2023-05-04T01:09:31.436Z,77.39
2023-05-04T01:12:06.436Z,77.70
2023-05-04T01:14:34.686Z,76.63
2023-05-04T01:17:06.513Z,77.45
2023-05-04T01:19:33.891Z,77.87
2023-05-04T01:22:02.588Z,79.10
2023-05-04T01:24:29.655Z,78.56
2023-05-04T01:27:03.937Z,78.50
2023-05-04T01:29:58.796Z,77.24
2023-05-04T01:32:28.009Z,77.60
2023-05-04T01:34:55.189Z,77.93
2023-05-04T01:37:21.615Z,78.54
2023-05-04T01:39:48.010Z,77.62
2023-05-04T01:42:14.429Z,77.55
2023-05-04T01:44:42.779Z,77.49
2023-05-04T01:47:09.813Z,77.65
2023-05-04T01:49:36.650Z,77.80
2023-05-04T01:52:03.126Z,77.40
2023-05-04T01:54:29.547Z,77.08
2023-05-04T01:56:57.185Z,77.54
2023-05-04T01:59:23.609Z,76.79
2023-05-04T02:01:50.070Z,77.14
2023-05-04T02:04:16.545Z,77.81
2023-05-04T02:06:43.016Z,78.02
2023-05-04T02:09:09.430Z,77.41
2023-05-04T02:11:35.935Z,77.78
2023-05-04T02:14:02.436Z,77.32
2023-05-04T02:16:28.999Z,77.67
2023-05-04T02:18:55.632Z,77.84
2023-05-04T02:21:22.103Z,78.05
2023-05-04T02:23:48.623Z,78.15
2023-05-04T02:26:15.083Z,77.58
2023-05-04T02:28:41.516Z,77.94
2023-05-04T02:31:08.875Z,77.68
2023-05-04T02:33:35.330Z,77.71
2023-05-04T02:36:01.738Z,77.78
2023-05-04T02:38:28.263Z,77.68
2023-05-04T02:40:54.853Z,77.35
2023-05-04T02:43:21.271Z,76.58
2023-05-04T02:45:47.720Z,76.47
2023-05-04T02:48:14.201Z,77.51
2023-05-04T02:50:41.018Z,77.98
2023-05-04T02:53:07.478Z,76.68
2023-05-04T02:55:33.904Z,77.47
2023-05-04T02:58:00.361Z,76.67
2023-05-04T03:00:26.767Z,77.26
2023-05-04T03:02:53.246Z,77.76
2023-05-04T03:05:19.744Z,77.65
2023-05-04T03:07:46.247Z,77.57
2023-05-04T03:10:12.740Z,78.37
2023-05-04T03:12:39.162Z,78.13
2023-05-04T03:15:06.066Z,78.03
2023-05-04T03:17:32.606Z,77.89
2023-05-04T03:19:59.090Z,77.26
2023-05-04T03:22:27.312Z,76.98
2023-05-04T03:24:54.068Z,77.37
2023-05-04T03:27:20.569Z,77.46
2023-05-04T03:29:47.037Z,77.83
2023-05-04T03:32:13.845Z,77.98
2023-05-04T03:34:41.313Z,77.62
2023-05-04T03:37:08.392Z,78.64
2023-05-04T03:39:34.953Z,78.99
2023-05-04T03:42:01.378Z,78.52
2023-05-04T03:44:27.826Z,79.24
2023-05-04T03:46:54.234Z,79.29
2023-05-04T03:49:21.123Z,79.16
2023-05-04T03:51:47.607Z,79.39
2023-05-04T03:54:14.071Z,79.52
2023-05-04T03:56:40.489Z,78.89
2023-05-04T03:59:08.019Z,79.79
2023-05-04T04:01:34.752Z,79.08
2023-05-04T04:04:02.338Z,78.58
2023-05-04T04:06:29.058Z,78.90
2023-05-04T04:08:55.533Z,80.23
2023-05-04T04:11:21.976Z,79.53
2023-05-04T04:13:48.405Z,80.26
2023-05-04T04:16:14.856Z,80.16
2023-05-04T04:18:41.281Z,80.08
2023-05-04T04:21:07.770Z,80.52
2023-05-04T04:23:34.309Z,80.78
2023-05-04T04:26:01.493Z,80.63
2023-05-04T04:28:28.834Z,80.32
2023-05-04T04:30:55.293Z,80.08
2023-05-04T04:33:21.878Z,80.20
2023-05-04T04:35:48.526Z,81.55
2023-05-04T04:38:14.933Z,81.66
2023-05-04T04:40:41.417Z,81.67
2023-05-04T04:43:08.057Z,81.76
2023-05-04T04:45:35.173Z,83.31
2023-05-04T04:48:01.901Z,82.97
2023-05-04T04:50:29.581Z,83.65
2023-05-04T04:52:56.257Z,83.25
2023-05-04T04:55:23.548Z,82.77
2023-05-04T04:57:50.714Z,82.91
2023-05-04T05:00:17.745Z,84.09
2023-05-04T05:02:44.264Z,83.65
2023-05-04T05:05:11.158Z,82.36
2023-05-04T05:07:37.656Z,82.44
2023-05-04T05:10:04.773Z,82.84
2023-05-04T05:12:31.493Z,82.53
2023-05-04T05:14:57.923Z,82.28
2023-05-04T05:17:26.136Z,81.15
2023-05-04T05:19:52.631Z,81.50
2023-05-04T05:22:19.051Z,80.81
2023-05-04T05:24:45.872Z,78.53
2023-05-04T05:27:12.360Z,78.36
2023-05-04T05:29:38.775Z,77.44
2023-05-04T05:32:05.573Z,75.86
2023-05-04T05:34:32.950Z,73.94
2023-05-04T05:36:59.424Z,73.87
2023-05-04T05:39:25.857Z,72.63
2023-05-04T05:41:56.444Z,70.52
2023-05-04T05:44:22.836Z,69.14
2023-05-04T05:46:49.254Z,66.63
2023-05-04T05:49:15.674Z,66.08
2023-05-04T05:51:42.076Z,64.74
2023-05-04T05:54:08.550Z,64.12
2023-05-04T05:56:34.936Z,63.13
2023-05-04T05:59:01.375Z,63.32
2023-05-04T06:01:27.775Z,62.20
2023-05-04T06:03:54.439Z,62.16
2023-05-04T06:06:21.051Z,61.15
2023-05-04T06:08:47.490Z,59.42
2023-05-04T06:11:13.976Z,59.33
2023-05-04T06:13:40.461Z,58.52
2023-05-04T06:16:06.896Z,57.56
2023-05-04T06:18:33.425Z,57.23
2023-05-04T06:21:00.708Z,56.42
2023-05-04T06:23:28.725Z,56.40
2023-05-04T06:25:55.142Z,56.15
2023-05-04T06:28:21.748Z,56.23
2023-05-04T06:30:48.467Z,55.95
2023-05-04T06:33:15.170Z,55.18
2023-05-04T06:35:42.028Z,54.49
2023-05-04T06:38:08.490Z,53.88
2023-05-04T06:40:34.942Z,52.32
2023-05-04T06:43:01.434Z,52.96
2023-05-04T06:45:27.929Z,51.70
2023-05-04T06:47:54.453Z,51.43
2023-05-04T06:50:23.682Z,52.21
2023-05-04T06:52:50.087Z,51.31
2023-05-04T06:55:16.579Z,51.16
2023-05-04T06:57:43.019Z,51.26
2023-05-04T07:00:10.603Z,50.08
2023-05-04T07:02:37.044Z,50.38
2023-05-04T07:05:03.896Z,49.63
2023-05-04T07:07:30.391Z,48.65
2023-05-04T07:09:56.822Z,47.99
2023-05-04T07:12:23.234Z,48.09
2023-05-04T07:14:49.721Z,48.16
2023-05-04T07:17:16.237Z,48.79
2023-05-04T07:19:43.005Z,47.23
2023-05-04T07:22:09.419Z,46.54
2023-05-04T07:24:35.852Z,46.58
2023-05-04T07:27:02.255Z,46.48
2023-05-04T07:29:28.685Z,45.89
2023-05-04T07:31:55.251Z,45.46
2023-05-04T07:34:27.423Z,45.07
2023-05-04T07:37:00.633Z,44.62
2023-05-04T07:39:27.060Z,44.27
2023-05-04T07:41:54.357Z,43.49
2023-05-04T07:44:20.770Z,43.66
2023-05-04T07:46:47.359Z,42.98
2023-05-04T07:49:13.786Z,41.98
2023-05-04T07:51:40.208Z,41.88
2023-05-04T07:54:06.666Z,42.32
2023-05-04T07:56:33.099Z,41.87
2023-05-04T07:58:59.508Z,42.38
2023-05-04T08:01:26.200Z,41.63
2023-05-04T08:03:52.664Z,41.04
2023-05-04T08:06:19.094Z,41.71
2023-05-04T08:08:46.408Z,42.43
2023-05-04T08:11:20.156Z,42.05
2023-05-04T08:13:50.610Z,41.14
2023-05-04T08:16:17.434Z,41.46
2023-05-04T08:18:43.914Z,40.94
2023-05-04T08:21:10.332Z,41.84
2023-05-04T08:23:36.874Z,40.92
2023-05-04T08:26:04.448Z,40.40
2023-05-04T08:28:31.168Z,40.24
2023-05-04T08:30:57.863Z,40.06
2023-05-04T08:33:24.301Z,40.55
2023-05-04T08:35:51.441Z,40.17
2023-05-04T08:38:17.880Z,39.65
2023-05-04T08:40:44.298Z,40.11
2023-05-04T08:43:10.987Z,38.90
2023-05-04T08:45:41.320Z,39.34
2023-05-04T08:48:08.721Z,39.62
2023-05-04T08:50:37.251Z,38.86
2023-05-04T08:53:06.954Z,38.52
2023-05-04T08:55:36.537Z,38.55
2023-05-04T08:58:08.267Z,38.72
2023-05-04T09:00:36.428Z,38.33
2023-05-04T09:03:04.763Z,37.13
2023-05-04T09:05:32.154Z,37.98
2023-05-04T09:07:58.864Z,37.88
2023-05-04T09:10:27.438Z,38.50
2023-05-04T09:12:58.047Z,38.01
2023-05-04T09:15:24.572Z,38.17
2023-05-04T09:20:23.289Z,37.69
2023-05-04T09:23:09.605Z,36.94
2023-05-04T09:25:50.271Z,37.17
2023-05-04T09:28:18.146Z,38.36
2023-05-04T09:30:46.169Z,38.56
2023-05-04T09:33:13.062Z,38.82
2023-05-04T09:35:44.373Z,38.94
2023-05-04T09:38:10.840Z,38.58
2023-05-04T09:40:43.465Z,37.69
2023-05-04T09:43:10.738Z,37.74
2023-05-04T09:45:44.669Z,36.65
2023-05-04T09:48:28.991Z,37.48
2023-05-04T09:50:57.391Z,36.49
2023-05-04T09:53:25.378Z,37.68
2023-05-04T09:56:08.450Z,36.63
2023-05-04T09:58:34.990Z,36.70
2023-05-04T10:01:01.419Z,36.36
2023-05-04T10:03:28.713Z,36.34
2023-05-04T10:05:55.369Z,36.24
2023-05-04T10:08:22.490Z,36.55
2023-05-04T10:10:49.023Z,36.16
2023-05-04T10:13:16.884Z,36.45
2023-05-04T10:16:18.414Z,35.55
2023-05-04T10:19:11.305Z,38.46
2023-05-04T10:22:10.337Z,34.92
2023-05-04T10:25:24.998Z,36.19
2023-05-04T10:28:09.220Z,36.56
2023-05-04T10:30:36.371Z,36.24
2023-05-04T10:33:02.985Z,36.33
2023-05-04T10:35:29.514Z,36.31
2023-05-04T10:37:56.604Z,36.40
2023-05-04T10:40:53.733Z,36.01
2023-05-04T10:43:24.149Z,36.22
2023-05-04T10:45:51.471Z,35.58
2023-05-04T10:48:18.013Z,35.76
2023-05-04T10:50:46.557Z,35.53
2023-05-04T10:53:14.818Z,35.41
2023-05-04T10:55:46.331Z,35.19
2023-05-04T10:58:16.441Z,35.08
2023-05-04T11:00:45.257Z,34.90
2023-05-04T11:03:12.467Z,35.20
2023-05-04T11:05:43.261Z,35.31
2023-05-04T11:08:20.654Z,35.26
2023-05-04T11:10:48.456Z,36.22
2023-05-04T11:13:16.466Z,35.41
2023-05-04T11:15:50.171Z,34.78
2023-05-04T11:18:26.575Z,34.40
2023-05-04T11:20:53.107Z,34.62
2023-05-04T11:23:19.564Z,34.67
2023-05-04T11:25:46.025Z,34.62
2023-05-04T11:28:14.663Z,33.47
2023-05-04T11:30:42.308Z,34.29
2023-05-04T11:33:13.547Z,33.66
2023-05-04T11:35:42.305Z,33.62
2023-05-04T11:38:08.735Z,34.58
2023-05-04T11:40:36.541Z,34.53
2023-05-04T11:43:04.128Z,34.64
2023-05-04T11:45:32.455Z,33.96
2023-05-04T11:47:59.624Z,34.04
2023-05-04T11:50:27.800Z,35.33
2023-05-04T11:53:08.916Z,34.31
2023-05-04T11:55:37.457Z,35.25
2023-05-04T11:58:06.041Z,34.71
2023-05-04T12:00:44.194Z,34.67
2023-05-04T12:03:14.119Z,34.08
2023-05-04T12:05:55.135Z,34.39
2023-05-04T12:08:22.165Z,33.87
2023-05-04T12:10:48.578Z,33.67
2023-05-04T12:13:16.894Z,34.23
2023-05-04T12:15:43.391Z,34.75
2023-05-04T12:18:29.188Z,33.85
2023-05-04T12:20:55.592Z,33.64
2023-05-04T12:23:21.998Z,33.77
2023-05-04T12:25:57.683Z,33.89
2023-05-04T12:28:26.740Z,33.52
2023-05-04T12:30:53.388Z,33.85
2023-05-04T12:33:19.811Z,34.88
2023-05-04T12:35:46.774Z,33.68
2023-05-04T12:38:13.291Z,33.48
2023-05-04T12:40:39.705Z,34.43
2023-05-04T12:43:06.251Z,34.21
2023-05-04T12:45:32.656Z,34.02
2023-05-04T12:47:59.090Z,33.66
2023-05-04T12:50:25.752Z,33.98
2023-05-04T12:52:52.144Z,34.72
2023-05-04T12:55:18.691Z,34.09
2023-05-04T12:57:45.107Z,34.52
2023-05-04T13:00:12.295Z,34.72
2023-05-04T13:02:38.744Z,34.59
2023-05-04T13:05:06.891Z,34.32
2023-05-04T13:07:34.382Z,34.70
2023-05-04T13:10:01.177Z,34.61
2023-05-04T13:12:27.603Z,33.87
2023-05-04T13:14:55.744Z,34.35
2023-05-04T13:17:22.209Z,34.78
2023-05-04T13:19:48.770Z,35.50
2023-05-04T13:22:15.169Z,35.08
2023-05-04T13:24:41.674Z,34.92
2023-05-04T13:27:08.128Z,35.31
2023-05-04T13:29:34.694Z,35.19
2023-05-04T13:32:01.198Z,35.77
2023-05-04T13:34:27.626Z,36.76
2023-05-04T13:36:54.048Z,36.21
2023-05-04T13:39:21.885Z,36.08
2023-05-04T13:41:48.719Z,35.37
2023-05-04T13:44:15.195Z,35.27
2023-05-04T13:46:41.735Z,34.02
2023-05-04T13:49:08.236Z,33.76
2023-05-04T13:51:34.981Z,33.90
2023-05-04T13:54:02.832Z,33.86
2023-05-04T13:56:29.694Z,33.53
2023-05-04T13:58:56.071Z,33.30
2023-05-04T14:01:23.545Z,32.42
2023-05-04T14:03:50.065Z,32.08
2023-05-04T14:06:16.524Z,32.37
2023-05-04T14:08:42.951Z,32.14
2023-05-04T14:11:09.397Z,32.61
2023-05-04T14:13:35.810Z,32.04
2023-05-04T14:16:02.239Z,32.55
2023-05-04T14:18:28.919Z,33.08
2023-05-04T14:20:55.877Z,32.66
2023-05-04T14:23:22.312Z,31.84
2023-05-04T14:25:53.367Z,31.95
2023-05-04T14:28:19.809Z,31.92
2023-05-04T14:30:46.296Z,31.95
2023-05-04T14:33:12.759Z,32.29
2023-05-04T14:35:42.749Z,31.92
2023-05-04T14:38:09.947Z,31.89
2023-05-04T14:40:36.389Z,32.01
2023-05-04T14:43:02.797Z,31.76
2023-05-04T14:45:29.243Z,32.19
2023-05-04T14:47:55.752Z,31.66
2023-05-04T14:50:22.367Z,31.17
2023-05-04T14:52:48.766Z,32.19
2023-05-04T14:55:15.329Z,32.35
2023-05-04T14:57:41.783Z,32.66
2023-05-04T15:00:09.316Z,32.60
2023-05-04T15:02:38.380Z,32.58
2023-05-04T15:05:05.469Z,32.66
2023-05-04T15:07:31.894Z,32.65
2023-05-04T15:09:58.376Z,32.64
2023-05-04T15:12:26.301Z,32.81
2023-05-04T15:14:52.811Z,33.72
2023-05-04T15:17:20.179Z,33.63
2023-05-04T15:19:46.770Z,33.20
2023-05-04T15:22:13.226Z,33.17
2023-05-04T15:24:39.654Z,33.62
2023-05-04T15:27:06.180Z,33.09
2023-05-04T15:29:32.623Z,32.73
2023-05-04T15:31:59.191Z,33.83
2023-05-04T15:34:25.715Z,33.66
2023-05-04T15:36:52.511Z,33.63
2023-05-04T15:39:18.941Z,33.43
2023-05-04T15:41:45.473Z,33.11
2023-05-04T15:44:11.938Z,33.01
2023-05-04T15:46:38.601Z,33.06
2023-05-04T15:49:05.453Z,32.53
2023-05-04T15:51:32.037Z,32.41
2023-05-04T15:53:58.709Z,33.26
2023-05-04T15:56:25.128Z,33.57
2023-05-04T15:58:51.557Z,32.92
2023-05-04T16:01:18.014Z,32.66
2023-05-04T16:03:45.620Z,32.88
2023-05-04T16:06:12.614Z,33.36
2023-05-04T16:08:39.310Z,32.84
2023-05-04T16:11:07.462Z,32.85
2023-05-04T16:13:33.947Z,33.58
2023-05-04T16:16:00.571Z,33.63
2023-05-04T16:18:26.992Z,33.21
2023-05-04T16:20:54.681Z,33.00
2023-05-04T16:23:21.231Z,33.12
2023-05-04T16:25:47.660Z,33.36
2023-05-04T16:28:14.059Z,33.36
2023-05-04T16:30:42.512Z,33.63
2023-05-04T16:33:08.983Z,33.65
2023-05-04T16:35:36.610Z,33.39
2023-05-04T16:38:03.934Z,33.38
2023-05-04T16:40:33.314Z,34.11
2023-05-04T16:42:59.975Z,34.03
2023-05-04T16:45:31.210Z,33.90
2023-05-04T16:47:58.668Z,34.19
2023-05-04T16:50:25.469Z,34.02
2023-05-04T16:52:51.886Z,34.12
2023-05-04T16:55:18.901Z,34.25
2023-05-04T16:57:45.908Z,34.54
2023-05-04T17:00:13.606Z,34.42
2023-05-04T17:02:40.280Z,34.33
2023-05-04T17:05:10.024Z,34.26
2023-05-04T17:07:39.494Z,34.12
2023-05-04T17:10:07.820Z,34.74
2023-05-04T17:12:34.552Z,34.79
2023-05-04T17:15:00.999Z,34.68
2023-05-04T17:17:27.525Z,35.29
2023-05-04T17:19:53.999Z,35.54
2023-05-04T17:22:20.530Z,35.19
2023-05-04T17:24:46.980Z,35.83
2023-05-04T17:27:13.424Z,35.97
2023-05-04T17:29:41.015Z,36.25
2023-05-04T17:32:10.791Z,36.55
2023-05-04T17:34:37.652Z,36.36
2023-05-04T17:37:04.152Z,36.04
2023-05-04T17:39:31.634Z,37.40
2023-05-04T17:41:58.560Z,38.85
2023-05-04T17:44:25.864Z,39.88
2023-05-04T17:46:52.302Z,40.59
2023-05-04T17:49:19.228Z,40.67
2023-05-04T17:51:46.439Z,40.48
2023-05-04T17:54:12.838Z,39.77
2023-05-04T17:56:39.247Z,41.04
2023-05-04T17:59:05.682Z,41.48
2023-05-04T18:01:32.354Z,42.03
2023-05-04T18:03:59.095Z,42.34
2023-05-04T18:06:26.063Z,41.61
2023-05-04T18:08:52.496Z,42.12
2023-05-04T18:11:18.947Z,43.08
2023-05-04T18:13:45.388Z,43.53
2023-05-04T18:16:11.887Z,45.17
2023-05-04T18:18:38.366Z,44.90
2023-05-04T18:21:04.996Z,45.56
2023-05-04T18:23:31.435Z,45.90
2023-05-04T18:25:57.898Z,46.39
2023-05-04T18:28:24.393Z,45.99
2023-05-04T18:30:50.844Z,45.88
2023-05-04T18:33:17.263Z,46.13
2023-05-04T18:35:43.706Z,45.98
2023-05-04T18:38:10.559Z,46.61
2023-05-04T18:40:36.989Z,47.01
2023-05-04T18:43:03.473Z,47.32
2023-05-04T18:45:29.935Z,48.85
2023-05-04T18:47:56.439Z,49.09
2023-05-04T18:50:22.853Z,49.94
2023-05-04T18:52:49.293Z,50.26
2023-05-04T18:55:15.703Z,49.38
2023-05-04T18:57:42.132Z,49.14
2023-05-04T19:00:09.267Z,48.75
2023-05-04T19:02:36.870Z,49.67
2023-05-04T19:05:03.424Z,49.76
2023-05-04T19:07:29.849Z,50.90
2023-05-04T19:09:56.353Z,51.27
2023-05-04T19:12:22.787Z,51.63
2023-05-04T19:14:50.423Z,51.86
2023-05-04T19:17:18.246Z,52.56
2023-05-04T19:19:44.678Z,50.67
2023-05-04T19:22:13.184Z,50.34
2023-05-04T19:24:39.871Z,49.88
2023-05-04T19:27:06.385Z,50.41
2023-05-04T19:29:32.971Z,49.62
2023-05-04T19:32:01.319Z,51.32
2023-05-04T19:34:32.244Z,52.10
2023-05-04T19:36:59.224Z,52.00
2023-05-04T19:39:25.809Z,51.65
2023-05-04T19:41:52.292Z,52.76
2023-05-04T19:44:18.699Z,53.12
2023-05-04T19:46:47.228Z,52.64
2023-05-04T19:49:13.721Z,53.25
2023-05-04T19:51:40.136Z,52.63
2023-05-04T19:54:06.606Z,51.74
2023-05-04T19:56:33.410Z,51.28
2023-05-04T19:58:59.823Z,51.32
2023-05-04T20:01:26.330Z,50.92
2023-05-04T20:03:52.788Z,50.68
2023-05-04T20:06:19.183Z,50.15
2023-05-04T20:08:45.594Z,50.55
2023-05-04T20:11:13.126Z,50.60
2023-05-04T20:13:39.626Z,50.29
2023-05-04T20:16:06.099Z,50.32
2023-05-04T20:18:32.510Z,49.85
2023-05-04T20:20:58.883Z,49.56
2023-05-04T20:23:25.344Z,49.60
2023-05-04T20:25:51.926Z,49.37
2023-05-04T20:28:18.307Z,49.28
2023-05-04T20:30:46.156Z,49.45
2023-05-04T20:33:12.678Z,49.52
2023-05-04T20:35:42.053Z,49.43
2023-05-04T20:38:08.760Z,49.68
2023-05-04T20:40:35.188Z,49.54
2023-05-04T20:43:01.641Z,49.37
2023-05-04T20:45:29.713Z,49.63
2023-05-04T20:47:56.519Z,49.43
2023-05-04T20:50:23.041Z,49.83
2023-05-04T20:52:49.647Z,49.59
2023-05-04T20:55:16.486Z,49.58
2023-05-04T20:57:42.978Z,50.07
2023-05-04T21:00:10.036Z,49.99
2023-05-04T21:02:36.654Z,49.86
2023-05-04T21:05:03.287Z,49.83
2023-05-04T21:07:29.704Z,50.24
2023-05-04T21:09:57.681Z,50.21
2023-05-04T21:12:24.860Z,50.76
2023-05-04T21:14:51.639Z,50.49
2023-05-04T21:17:18.118Z,51.14
2023-05-04T21:19:44.538Z,50.99
2023-05-04T21:22:10.961Z,50.86
2023-05-04T21:24:37.372Z,50.75
2023-05-04T21:27:03.787Z,51.44
2023-05-04T21:29:30.380Z,51.30
2023-05-04T21:31:57.352Z,51.80
2023-05-04T21:34:23.917Z,51.52
2023-05-04T21:36:50.403Z,51.59
2023-05-04T21:39:17.483Z,51.92
2023-05-04T21:41:43.908Z,53.40
2023-05-04T21:44:10.310Z,53.54
2023-05-04T21:46:36.750Z,53.12
2023-05-04T21:49:03.202Z,54.40
2023-05-04T21:51:29.904Z,54.61
2023-05-04T21:53:56.324Z,54.13
2023-05-04T21:56:22.736Z,54.64
2023-05-04T21:58:50.027Z,54.49
2023-05-04T22:01:17.566Z,55.14
2023-05-04T22:03:44.682Z,56.27
2023-05-04T22:06:11.206Z,55.92
2023-05-04T22:08:38.034Z,55.93
2023-05-04T22:11:04.525Z,55.62
2023-05-04T22:13:30.969Z,56.06
2023-05-04T22:15:57.357Z,56.33
2023-05-04T22:18:23.843Z,56.48
2023-05-04T22:20:50.802Z,56.80
2023-05-04T22:23:17.232Z,56.86
2023-05-04T22:25:43.667Z,56.84
2023-05-04T22:28:10.077Z,57.08
2023-05-04T22:30:36.599Z,56.92
2023-05-04T22:33:03.530Z,57.56
2023-05-04T22:35:31.583Z,56.97
2023-05-04T22:37:58.078Z,57.46
2023-05-04T22:40:24.587Z,58.42
2023-05-04T22:42:50.992Z,58.44
2023-05-04T22:45:20.216Z,59.41
2023-05-04T22:47:47.000Z,59.19
2023-05-04T22:50:14.031Z,60.75
2023-05-04T22:52:41.140Z,61.50
2023-05-04T22:55:08.758Z,62.80
2023-05-04T22:57:35.361Z,63.54
2023-05-04T23:00:01.803Z,63.88
2023-05-04T23:02:28.373Z,63.89
2023-05-04T23:04:54.904Z,65.07
2023-05-04T23:07:21.343Z,65.24
2023-05-04T23:09:47.756Z,64.89
2023-05-04T23:12:15.201Z,64.82
2023-05-04T23:14:41.942Z,64.89
2023-05-04T23:17:08.487Z,66.04
2023-05-04T23:19:34.914Z,66.79
2023-05-04T23:22:01.346Z,66.74
2023-05-04T23:24:27.772Z,67.68
2023-05-04T23:26:54.198Z,68.31
2023-05-04T23:29:20.845Z,67.62
2023-05-04T23:31:47.337Z,68.77
2023-05-04T23:34:13.849Z,68.12
2023-05-04T23:36:40.262Z,68.47
2023-05-04T23:39:06.754Z,68.56
2023-05-04T23:41:33.360Z,68.79
2023-05-04T23:43:59.947Z,69.80
2023-05-04T23:46:26.408Z,70.04
2023-05-04T23:48:52.930Z,70.15
2023-05-04T23:51:19.340Z,69.97
2023-05-04T23:53:45.772Z,69.75
2023-05-04T23:56:12.989Z,70.33
2023-05-04T23:58:39.499Z,70.47
